Time;durP1;ratioP1;P1;durP2;ratioP2;P2;SDS_P1;SDS_P2;PMS_P1;PMS_P2;Temp;Humidity;BMP_temperature;BMP_pressure;BME280_temperature;BME280_humidity;BME280_pressure;Samples;Min_cycle;Max_cycle;Signal;HPM_P1;HPM_P2
2022/06/09 00:00:10;;;;;;;14.50;4.43;;;14.20;99.90;;;;;;5008558;28;20022;-57
2022/06/09 00:02:38;;;;;;;11.90;4.30;;;14.20;99.90;;;;;;5006481;28;20022;-56
2022/06/09 00:05:06;;;;;;;12.15;4.45;;;14.10;99.90;;;;;;5007322;28;20463;-59
2022/06/09 00:07:32;;;;;;;9.48;3.78;;;14.10;99.90;;;;;;5011223;28;20014;-57
2022/06/09 00:10:03;;;;;;;15.23;4.53;;;14.10;99.90;;;;;;5012390;28;20029;-60
2022/06/09 00:12:30;;;;;;;15.27;4.30;;;14.10;99.90;;;;;;5010650;28;20376;-56
2022/06/09 00:14:57;;;;;;;10.20;4.55;;;14.10;99.90;;;;;;5011032;28;20033;-57
2022/06/09 00:17:24;;;;;;;15.98;4.45;;;14.10;99.90;;;;;;5011074;28;20451;-58
2022/06/09 00:19:50;;;;;;;12.98;3.55;;;14.10;99.90;;;;;;5010866;28;20022;-55
2022/06/09 00:22:17;;;;;;;15.43;4.03;;;14.10;99.90;;;;;;5010276;28;20070;-57
2022/06/09 00:24:42;;;;;;;11.02;3.85;;;14.10;99.90;;;;;;5010940;28;20030;-55
2022/06/09 00:27:08;;;;;;;11.65;3.55;;;14.10;99.90;;;;;;4994918;28;20107;-58
2022/06/09 00:29:34;;;;;;;14.40;3.20;;;14.10;99.90;;;;;;5007627;28;20030;-58
2022/06/09 00:32:00;;;;;;;18.20;3.70;;;14.00;99.90;;;;;;5011902;28;20061;-58
2022/06/09 00:34:25;;;;;;;13.80;2.90;;;14.00;99.90;;;;;;5009026;28;20077;-59
2022/06/09 00:36:51;;;;;;;8.52;3.13;;;13.90;99.90;;;;;;5006561;28;20041;-56
2022/06/09 00:39:16;;;;;;;14.80;3.50;;;13.90;99.90;;;;;;5011045;28;20072;-57
2022/06/09 00:41:43;;;;;;;12.75;3.45;;;13.80;99.90;;;;;;5010554;28;20368;-56
2022/06/09 00:44:22;;;;;;;10.32;4.15;;;13.80;99.90;;;;;;5010589;28;20033;-54
2022/06/09 00:47:02;;;;;;;11.82;3.78;;;13.80;99.90;;;;;;4985045;28;20040;-57
2022/06/09 00:49:59;;;;;;;24.90;5.22;;;13.70;99.90;;;;;;5010067;28;20531;-51
2022/06/09 00:52:28;;;;;;;22.17;5.13;;;13.70;99.90;;;;;;5008327;28;20038;-54
2022/06/09 00:54:57;;;;;;;11.48;3.95;;;13.70;99.90;;;;;;5010582;28;20391;-53
2022/06/09 00:57:35;;;;;;;16.23;3.40;;;13.70;99.90;;;;;;5008440;28;20097;-58
2022/06/09 01:00:07;;;;;;;17.85;4.07;;;13.70;99.90;;;;;;5011025;28;20029;-57
2022/06/09 01:02:33;;;;;;;18.20;4.55;;;13.60;99.90;;;;;;5008355;28;20021;-54
2022/06/09 01:05:03;;;;;;;12.30;3.20;;;13.50;99.90;;;;;;5009941;28;20029;-57
2022/06/09 01:07:35;;;;;;;14.63;2.85;;;13.50;99.90;;;;;;5041287;28;20033;-50
2022/06/09 01:10:01;;;;;;;7.80;3.38;;;13.40;99.90;;;;;;5009630;28;20030;-58
2022/06/09 01:12:37;;;;;;;19.00;4.28;;;13.30;99.90;;;;;;5010967;28;20051;-60
2022/06/09 01:15:11;;;;;;;10.02;3.50;;;13.30;99.90;;;;;;5008379;28;20547;-52
2022/06/09 01:17:49;;;;;;;14.07;4.35;;;13.30;99.90;;;;;;5008313;28;20056;-56
2022/06/09 01:20:23;;;;;;;14.80;3.72;;;13.20;99.90;;;;;;5009836;28;20050;-58
2022/06/09 01:23:03;;;;;;;9.82;2.92;;;13.20;99.90;;;;;;5005699;28;20116;-57
2022/06/09 01:25:41;;;;;;;19.63;6.00;;;13.20;99.90;;;;;;5009750;28;20034;-54
2022/06/09 01:28:33;;;;;;;14.77;4.03;;;13.20;99.90;;;;;;4998138;28;20066;-57
2022/06/09 01:31:02;;;;;;;20.75;3.75;;;13.20;99.90;;;;;;4995041;28;20046;-58
2022/06/09 01:33:42;;;;;;;12.57;4.05;;;13.20;99.90;;;;;;5000288;28;20074;-56
2022/06/09 01:36:14;;;;;;;14.60;4.47;;;13.20;99.90;;;;;;5004356;28;20588;-58
2022/06/09 01:38:47;;;;;;;16.88;4.60;;;13.20;99.90;;;;;;5000412;28;20407;-55
2022/06/09 01:41:16;;;;;;;16.75;4.05;;;13.30;99.90;;;;;;4996656;28;20034;-56
2022/06/09 01:43:43;;;;;;;19.33;4.57;;;13.30;99.90;;;;;;5000990;28;20061;-57
2022/06/09 01:46:32;;;;;;;15.45;3.95;;;13.30;99.90;;;;;;4999488;28;20053;-58
2022/06/09 01:49:21;;;;;;;16.33;4.25;;;13.30;99.90;;;;;;5003364;28;20081;-58
2022/06/09 01:51:50;;;;;;;9.95;4.05;;;13.30;99.90;;;;;;5007429;28;20038;-58
2022/06/09 01:54:25;;;;;;;15.18;4.90;;;13.30;99.90;;;;;;5007760;28;20050;-60
2022/06/09 01:56:58;;;;;;;13.38;4.05;;;13.40;99.90;;;;;;5004888;28;20146;-59
2022/06/09 01:59:28;;;;;;;16.33;3.95;;;13.40;99.90;;;;;;5006441;28;20014;-58
2022/06/09 02:02:03;;;;;;;11.57;3.80;;;13.40;99.90;;;;;;5009345;28;20054;-61
2022/06/09 02:04:37;;;;;;;11.18;4.25;;;13.40;99.90;;;;;;5010227;28;20030;-61
2022/06/09 02:07:06;;;;;;;17.92;3.78;;;13.40;99.90;;;;;;5010146;28;20125;-59
2022/06/09 02:09:34;;;;;;;17.83;3.63;;;13.40;99.90;;;;;;5008727;28;20038;-59
2022/06/09 02:12:22;;;;;;;16.52;4.25;;;13.40;99.90;;;;;;5003412;28;20034;-59
2022/06/09 02:14:51;;;;;;;18.15;4.03;;;13.40;99.90;;;;;;5010071;28;20030;-58
2022/06/09 02:17:18;;;;;;;14.32;3.65;;;13.40;99.90;;;;;;5014531;28;20030;-58
2022/06/09 02:19:45;;;;;;;13.23;3.50;;;13.40;99.90;;;;;;5005418;28;20014;-58
2022/06/09 02:22:12;;;;;;;12.68;3.15;;;13.50;99.90;;;;;;5009638;28;20026;-60
2022/06/09 02:24:38;;;;;;;15.30;3.65;;;13.50;99.90;;;;;;5008532;28;20026;-58
2022/06/09 02:27:05;;;;;;;14.00;3.70;;;13.50;99.90;;;;;;4985304;28;20042;-58
2022/06/09 02:29:32;;;;;;;11.88;3.50;;;13.40;99.90;;;;;;4989634;28;20030;-58
2022/06/09 02:31:57;;;;;;;15.75;3.70;;;13.40;99.90;;;;;;4990024;28;20033;-59
2022/06/09 02:34:23;;;;;;;8.45;3.13;;;13.50;99.90;;;;;;4990573;28;20049;-57
2022/06/09 02:36:49;;;;;;;17.70;4.18;;;13.50;99.90;;;;;;4989235;28;20546;-55
2022/06/09 02:39:14;;;;;;;14.27;3.42;;;13.50;99.90;;;;;;4988616;28;20392;-59
2022/06/09 02:41:40;;;;;;;14.20;3.50;;;13.50;99.90;;;;;;4990156;28;20018;-59
2022/06/09 02:44:06;;;;;;;14.60;3.42;;;13.50;99.90;;;;;;4990600;28;20038;-60
2022/06/09 02:46:32;;;;;;;11.27;3.00;;;13.50;99.90;;;;;;4989742;28;20118;-57
2022/06/09 02:48:58;;;;;;;13.20;3.55;;;13.50;99.90;;;;;;4989603;28;20035;-55
2022/06/09 02:51:23;;;;;;;9.27;3.30;;;13.50;99.90;;;;;;4988053;28;20488;-55
2022/06/09 02:53:49;;;;;;;12.77;3.40;;;13.50;99.90;;;;;;4990007;28;20436;-55
2022/06/09 02:56:15;;;;;;;18.10;4.72;;;13.50;99.90;;;;;;4986407;28;20026;-60
2022/06/09 02:58:41;;;;;;;22.42;3.50;;;13.50;99.90;;;;;;4989719;28;20073;-58
2022/06/09 03:01:07;;;;;;;17.08;3.40;;;13.50;99.90;;;;;;4989909;28;20018;-59
2022/06/09 03:03:33;;;;;;;14.93;2.95;;;13.50;99.90;;;;;;4988021;28;20452;-59
2022/06/09 03:05:59;;;;;;;9.57;3.00;;;13.50;99.90;;;;;;4988701;28;20038;-55
2022/06/09 03:08:26;;;;;;;13.90;3.80;;;13.50;99.90;;;;;;4988761;28;20037;-58
2022/06/09 03:10:52;;;;;;;11.70;3.28;;;13.50;99.90;;;;;;4989496;28;20045;-60
2022/06/09 03:13:18;;;;;;;12.82;3.50;;;13.50;99.90;;;;;;4988455;28;20038;-58
2022/06/09 03:15:47;;;;;;;14.65;3.22;;;13.50;99.90;;;;;;4989363;28;20046;-58
2022/06/09 03:18:14;;;;;;;18.65;4.03;;;13.50;99.90;;;;;;4986994;28;20034;-56
2022/06/09 03:20:40;;;;;;;9.82;3.13;;;13.50;99.90;;;;;;4988201;28;20022;-56
2022/06/09 03:23:05;;;;;;;12.43;3.55;;;13.50;99.90;;;;;;4989172;28;20026;-57
2022/06/09 03:25:31;;;;;;;15.48;4.07;;;13.50;99.90;;;;;;4990670;28;20670;-59
2022/06/09 03:27:57;;;;;;;11.80;3.78;;;13.50;99.90;;;;;;4981773;28;20407;-57
2022/06/09 03:30:23;;;;;;;12.13;3.50;;;13.50;99.90;;;;;;5002929;28;20031;-58
2022/06/09 03:32:48;;;;;;;13.63;3.40;;;13.50;99.90;;;;;;4991934;28;20136;-57
2022/06/09 03:35:14;;;;;;;16.45;4.15;;;13.50;99.90;;;;;;5002890;28;20081;-60
2022/06/09 03:37:40;;;;;;;12.52;3.88;;;13.50;99.90;;;;;;5003947;28;20026;-59
2022/06/09 03:40:11;;;;;;;14.77;3.47;;;13.50;99.90;;;;;;4998707;28;20028;-60
2022/06/09 03:42:37;;;;;;;11.00;3.20;;;13.50;99.90;;;;;;5001586;28;20057;-58
2022/06/09 03:45:03;;;;;;;14.18;3.83;;;13.50;99.90;;;;;;4990282;28;20627;-57
2022/06/09 03:47:28;;;;;;;12.77;3.80;;;13.50;99.90;;;;;;4989767;28;20451;-57
2022/06/09 03:49:54;;;;;;;11.88;4.05;;;13.50;99.90;;;;;;4989893;28;20027;-53
2022/06/09 03:52:20;;;;;;;15.27;4.63;;;13.50;99.90;;;;;;4988350;28;20065;-58
2022/06/09 03:54:45;;;;;;;17.60;4.20;;;13.50;99.90;;;;;;4990692;28;20054;-55
2022/06/09 03:57:11;;;;;;;19.13;5.32;;;13.50;99.90;;;;;;4991897;28;20101;-57
2022/06/09 03:59:37;;;;;;;15.57;4.93;;;13.50;99.90;;;;;;4983298;28;20023;-58
2022/06/09 04:02:02;;;;;;;22.55;5.60;;;13.60;99.90;;;;;;4990933;28;20496;-56
2022/06/09 04:04:28;;;;;;;18.73;5.18;;;13.60;99.90;;;;;;4991502;28;20030;-59
2022/06/09 04:06:54;;;;;;;23.52;6.45;;;13.60;99.90;;;;;;4990769;28;20030;-59
2022/06/09 04:09:20;;;;;;;25.20;5.70;;;13.50;99.90;;;;;;4989819;28;20038;-59
2022/06/09 04:11:45;;;;;;;17.65;5.50;;;13.60;99.90;;;;;;4986733;28;20043;-59
2022/06/09 04:14:11;;;;;;;26.23;6.18;;;13.60;99.90;;;;;;4989955;28;20034;-58
2022/06/09 04:16:40;;;;;;;23.23;5.68;;;13.60;99.90;;;;;;4986655;28;20106;-59
2022/06/09 04:19:09;;;;;;;17.15;6.85;;;13.60;99.90;;;;;;4979957;28;20420;-60
2022/06/09 04:21:36;;;;;;;17.42;6.07;;;13.50;99.90;;;;;;4983977;28;20073;-60
2022/06/09 04:24:03;;;;;;;19.70;6.20;;;13.50;99.90;;;;;;4984031;28;20435;-59
2022/06/09 04:26:32;;;;;;;26.83;6.43;;;13.50;99.90;;;;;;4970119;28;20121;-60
2022/06/09 04:28:57;;;;;;;23.70;7.07;;;13.50;99.90;;;;;;4989555;28;20030;-61
2022/06/09 04:31:23;;;;;;;17.02;6.57;;;13.50;99.90;;;;;;4999402;28;20519;-56
2022/06/09 04:33:51;;;;;;;26.02;6.47;;;13.60;99.90;;;;;;5001988;28;20038;-59
2022/06/09 04:36:19;;;;;;;15.85;6.50;;;13.60;99.90;;;;;;4995346;28;20045;-58
2022/06/09 04:38:45;;;;;;;17.50;5.78;;;13.60;99.90;;;;;;4994934;28;20037;-55
2022/06/09 04:41:12;;;;;;;20.67;5.72;;;13.50;99.90;;;;;;4998804;28;20034;-59
2022/06/09 04:43:40;;;;;;;16.13;7.63;;;13.50;99.90;;;;;;5011731;28;20037;-58
2022/06/09 04:46:07;;;;;;;20.30;6.13;;;13.50;99.90;;;;;;4995431;28;20946;-59
2022/06/09 04:48:35;;;;;;;16.55;6.70;;;13.50;99.90;;;;;;4990196;28;20031;-59
2022/06/09 04:51:01;;;;;;;16.58;5.80;;;13.50;99.90;;;;;;4988863;28;20026;-58
2022/06/09 04:53:27;;;;;;;20.30;6.60;;;13.50;99.90;;;;;;4988146;28;20059;-57
2022/06/09 04:55:53;;;;;;;17.08;6.63;;;13.50;99.90;;;;;;4989576;28;20018;-58
2022/06/09 04:58:19;;;;;;;20.67;8.05;;;13.50;99.90;;;;;;4981603;28;20042;-55
2022/06/09 05:00:44;;;;;;;23.35;7.00;;;13.50;99.90;;;;;;4980422;28;20022;-57
2022/06/09 05:03:13;;;;;;;15.50;7.13;;;13.50;99.90;;;;;;4978272;28;20069;-56
2022/06/09 05:05:42;;;;;;;21.77;8.15;;;13.60;99.90;;;;;;4982523;28;20655;-56
2022/06/09 05:08:07;;;;;;;15.60;7.03;;;13.70;99.90;;;;;;4986995;28;20030;-56
2022/06/09 05:10:33;;;;;;;20.25;7.50;;;13.70;99.90;;;;;;4986648;28;20037;-57
2022/06/09 05:12:59;;;;;;;16.83;7.82;;;13.70;99.90;;;;;;4976136;28;20031;-60
2022/06/09 05:15:25;;;;;;;24.30;8.52;;;13.80;99.90;;;;;;4987648;28;20034;-56
2022/06/09 05:17:52;;;;;;;27.83;8.40;;;13.80;99.90;;;;;;4989428;28;20720;-57
2022/06/09 05:20:21;;;;;;;18.02;7.93;;;13.80;99.90;;;;;;4979898;28;20110;-58
2022/06/09 05:22:47;;;;;;;21.65;8.18;;;13.80;99.90;;;;;;4989386;28;20026;-56
2022/06/09 05:25:13;;;;;;;19.35;7.55;;;13.90;99.90;;;;;;4983895;28;20038;-56
2022/06/09 05:27:39;;;;;;;16.30;6.82;;;13.90;99.90;;;;;;4974191;28;20052;-58
2022/06/09 05:30:09;;;;;;;16.30;5.65;;;14.00;99.90;;;;;;5009986;28;20033;-57
2022/06/09 05:32:34;;;;;;;10.93;5.50;;;14.00;99.90;;;;;;5004615;28;20101;-59
2022/06/09 05:35:00;;;;;;;18.25;5.68;;;14.10;99.90;;;;;;5010275;28;20101;-58
2022/06/09 05:44:50;;;;;;;16.88;5.38;;;14.10;99.90;;;;;;5010810;28;20399;-57
2022/06/09 05:45:40;;;;;;;17.90;6.18;;;14.00;99.90;;;;;;5006586;28;20620;-58
2022/06/09 05:48:06;;;;;;;23.45;6.13;;;14.00;99.90;;;;;;5004199;28;20086;-58
2022/06/09 05:50:32;;;;;;;12.95;6.05;;;14.00;99.90;;;;;;5006696;28;20030;-57
2022/06/09 05:52:57;;;;;;;15.50;5.75;;;14.10;99.90;;;;;;5008340;28;20372;-58
2022/06/09 05:55:23;;;;;;;15.73;6.72;;;14.20;99.90;;;;;;5008751;28;20033;-58
2022/06/09 05:57:48;;;;;;;24.05;6.93;;;14.20;99.90;;;;;;5008737;28;20021;-58
2022/06/09 06:00:14;;;;;;;19.65;6.32;;;14.40;99.90;;;;;;5024822;28;20041;-60
2022/06/09 06:02:40;;;;;;;18.42;6.57;;;14.50;99.90;;;;;;5009412;28;20075;-58
2022/06/09 06:06:33;;;;;;;17.73;6.45;;;14.50;99.90;;;;;;5009325;28;20508;-55
2022/06/09 06:07:52;;;;;;;23.33;7.75;;;14.50;99.90;;;;;;5009454;28;20089;-52
2022/06/09 06:10:17;;;;;;;19.38;7.13;;;14.60;99.90;;;;;;5009956;28;20080;-58
2022/06/09 06:12:43;;;;;;;16.63;6.25;;;14.70;99.90;;;;;;5009102;28;20022;-58
2022/06/09 06:15:09;;;;;;;25.08;6.65;;;14.80;99.90;;;;;;5007833;28;20026;-59
2022/06/09 06:17:35;;;;;;;19.95;8.25;;;14.90;99.90;;;;;;5009397;28;20028;-57
2022/06/09 06:20:01;;;;;;;19.42;6.13;;;14.90;99.90;;;;;;5008093;28;20029;-63
2022/06/09 06:22:27;;;;;;;14.57;5.82;;;15.00;99.90;;;;;;5009973;28;20025;-56
2022/06/09 06:24:53;;;;;;;15.30;5.70;;;15.00;99.90;;;;;;5009088;28;20144;-57
2022/06/09 06:27:18;;;;;;;22.02;6.78;;;15.00;99.90;;;;;;4993741;28;20527;-62
2022/06/09 06:29:44;;;;;;;23.35;6.55;;;14.90;99.90;;;;;;5009270;28;20029;-59
2022/06/09 06:32:10;;;;;;;16.50;6.25;;;14.90;99.90;;;;;;5008236;28;20038;-59
2022/06/09 06:34:35;;;;;;;28.05;7.07;;;14.80;99.90;;;;;;5011261;28;20037;-59
2022/06/09 06:37:01;;;;;;;16.08;6.57;;;14.70;99.90;;;;;;5009140;28;20033;-59
2022/06/09 06:39:26;;;;;;;19.50;6.57;;;14.70;99.90;;;;;;5008941;28;20025;-58
2022/06/09 06:41:52;;;;;;;13.68;5.47;;;14.60;99.90;;;;;;5009052;28;20032;-60
2022/06/09 06:44:18;;;;;;;20.17;6.50;;;14.70;99.90;;;;;;5008161;28;20060;-57
2022/06/09 06:46:43;;;;;;;15.43;6.40;;;14.70;99.90;;;;;;5008323;28;20036;-60
2022/06/09 06:49:09;;;;;;;30.42;7.53;;;14.80;99.90;;;;;;5009704;28;20121;-59
2022/06/09 06:51:36;;;;;;;22.42;7.30;;;14.80;99.90;;;;;;5008163;28;20041;-58
2022/06/09 06:54:04;;;;;;;15.60;6.35;;;14.90;99.90;;;;;;5008690;28;20030;-57
2022/06/09 06:56:31;;;;;;;23.67;7.63;;;14.90;99.90;;;;;;5009546;28;20084;-60
2022/06/09 06:58:56;;;;;;;22.30;8.68;;;14.90;99.90;;;;;;5009577;28;20373;-56
2022/06/09 07:01:22;;;;;;;23.17;8.93;;;14.90;99.90;;;;;;5015263;28;20032;-56
2022/06/09 07:03:48;;;;;;;26.83;8.45;;;14.90;99.90;;;;;;5014054;28;20033;-58
2022/06/09 07:06:14;;;;;;;25.10;9.60;;;15.00;99.90;;;;;;5011732;28;20022;-56
2022/06/09 07:08:39;;;;;;;25.65;8.70;;;15.20;99.90;;;;;;5012572;28;20049;-59
2022/06/09 07:11:07;;;;;;;39.88;10.45;;;15.10;99.90;;;;;;5011997;28;20038;-54
2022/06/09 07:13:34;;;;;;;23.40;8.52;;;15.20;99.90;;;;;;5006455;28;20112;-58
2022/06/09 07:16:00;;;;;;;26.85;9.93;;;15.20;99.90;;;;;;5008674;28;20037;-61
2022/06/09 07:18:25;;;;;;;24.27;9.63;;;15.20;99.90;;;;;;5012974;28;20025;-60
2022/06/09 07:20:51;;;;;;;23.80;8.20;;;15.20;99.90;;;;;;5011083;28;20049;-55
2022/06/09 07:23:17;;;;;;;20.05;8.85;;;15.30;99.90;;;;;;5011556;28;20033;-62
2022/06/09 07:25:43;;;;;;;19.35;8.52;;;15.30;99.90;;;;;;5011556;28;20499;-59
2022/06/09 07:28:08;;;;;;;22.35;8.68;;;15.40;99.90;;;;;;4996012;28;20100;-55
2022/06/09 07:30:34;;;;;;;19.33;8.20;;;15.30;99.90;;;;;;5015342;28;20076;-56
2022/06/09 07:33:00;;;;;;;24.17;9.73;;;15.40;99.90;;;;;;5011230;28;20034;-58
2022/06/09 07:35:29;;;;;;;21.50;8.68;;;15.30;99.90;;;;;;5011736;28;20077;-58
2022/06/09 07:37:56;;;;;;;22.50;8.05;;;15.30;99.90;;;;;;5011413;28;20036;-52
2022/06/09 07:40:22;;;;;;;22.85;7.72;;;15.30;99.90;;;;;;5010426;28;20025;-59
2022/06/09 07:42:48;;;;;;;25.17;8.55;;;15.50;99.90;;;;;;5009533;28;20022;-53
2022/06/09 07:45:16;;;;;;;24.75;7.85;;;15.60;99.90;;;;;;5009896;28;20033;-58
2022/06/09 07:47:41;;;;;;;16.67;7.60;;;15.60;99.90;;;;;;5012565;28;20030;-57
2022/06/09 07:50:09;;;;;;;26.15;8.98;;;15.60;99.90;;;;;;5011459;28;20033;-54
2022/06/09 07:52:35;;;;;;;23.05;8.00;;;15.60;99.90;;;;;;5008268;28;20401;-58
2022/06/09 07:55:01;;;;;;;28.20;8.10;;;15.50;99.90;;;;;;5009141;28;20053;-59
2022/06/09 07:57:26;;;;;;;18.55;8.15;;;15.60;99.90;;;;;;5012431;28;20021;-55
2022/06/09 07:59:52;;;;;;;18.08;7.80;;;15.50;99.90;;;;;;5011078;28;20029;-56
2022/06/09 08:02:18;;;;;;;25.23;7.75;;;15.40;99.90;;;;;;5012218;28;20022;-58
2022/06/09 08:04:43;;;;;;;22.17;7.95;;;15.40;99.90;;;;;;5010178;28;20030;-56
2022/06/09 08:07:09;;;;;;;22.60;7.43;;;15.40;99.90;;;;;;5011488;28;20503;-58
2022/06/09 08:09:35;;;;;;;23.02;8.15;;;15.50;99.90;;;;;;5011659;28;20053;-54
2022/06/09 08:12:01;;;;;;;27.17;7.55;;;15.60;99.90;;;;;;5012495;28;20487;-56
2022/06/09 08:14:26;;;;;;;18.55;7.03;;;15.70;99.90;;;;;;5011055;28;20075;-59
2022/06/09 08:16:52;;;;;;;20.40;7.00;;;15.80;99.90;;;;;;5011898;28;20017;-59
2022/06/09 08:19:18;;;;;;;17.80;5.82;;;16.00;99.90;;;;;;5009808;28;20172;-58
2022/06/09 08:21:44;;;;;;;27.92;7.05;;;16.20;99.90;;;;;;5011876;28;20535;-57
2022/06/09 08:24:10;;;;;;;17.52;5.65;;;16.40;99.90;;;;;;5009789;28;20026;-58
2022/06/09 08:26:36;;;;;;;14.50;6.07;;;16.80;99.90;;;;;;5004533;28;20025;-60
2022/06/09 08:29:02;;;;;;;21.38;6.03;;;17.40;99.90;;;;;;4978252;28;20048;-60
2022/06/09 08:31:28;;;;;;;15.57;5.22;;;17.70;99.90;;;;;;5012087;28;20030;-54
2022/06/09 08:33:54;;;;;;;13.77;4.90;;;17.80;99.90;;;;;;5010728;28;20436;-59
2022/06/09 08:36:19;;;;;;;22.63;5.85;;;17.70;99.90;;;;;;5009683;28;20119;-56
2022/06/09 08:38:46;;;;;;;20.50;5.90;;;17.60;99.90;;;;;;5011112;28;20072;-59
2022/06/09 08:41:33;;;;;;;16.63;6.07;;;17.40;99.90;;;;;;5011779;28;20138;-59
2022/06/09 08:44:35;;;;;;;22.42;6.78;;;17.10;99.90;;;;;;5006437;28;20102;-56
2022/06/09 08:47:12;;;;;;;13.90;5.53;;;16.70;99.90;;;;;;4998784;28;20037;-59
2022/06/09 08:49:55;;;;;;;14.20;5.15;;;16.70;99.90;;;;;;5006716;28;20030;-59
2022/06/09 08:52:53;;;;;;;22.25;6.82;;;16.70;99.90;;;;;;5009918;28;20029;-58
2022/06/09 08:55:39;;;;;;;15.77;4.53;;;17.10;99.90;;;;;;5006867;28;20030;-57
2022/06/09 08:58:21;;;;;;;14.13;5.50;;;17.70;99.90;;;;;;5010358;28;20018;-58
2022/06/09 09:00:50;;;;;;;15.48;6.28;;;18.30;99.90;;;;;;5010570;28;20439;-59
2022/06/09 09:03:22;;;;;;;16.40;5.25;;;18.70;99.90;;;;;;5010278;28;20040;-55
2022/06/09 09:05:55;;;;;;;15.20;5.35;;;18.70;99.90;;;;;;5009759;28;20022;-57
2022/06/09 09:08:21;;;;;;;18.25;5.80;;;18.70;99.90;;;;;;5009288;28;20038;-59
2022/06/09 09:11:22;;;;;;;13.52;5.03;;;18.60;99.90;;;;;;5010178;28;20022;-57
2022/06/09 09:14:16;;;;;;;18.38;5.47;;;18.70;99.90;;;;;;5006960;28;20056;-60
2022/06/09 09:16:56;;;;;;;14.70;5.20;;;19.40;99.90;;;;;;5006918;28;20557;-59
2022/06/09 09:19:45;;;;;;;15.43;4.70;;;20.40;99.90;;;;;;5009289;28;20034;-59
2022/06/09 09:22:20;;;;;;;17.88;4.75;;;21.90;99.90;;;;;;5008608;28;21357;-57
2022/06/09 09:25:03;;;;;;;9.98;4.15;;;22.50;98.70;;;;;;5009907;28;20116;-57
2022/06/09 09:27:43;;;;;;;16.30;4.38;;;23.70;96.10;;;;;;5009037;28;20518;-59
2022/06/09 09:30:15;;;;;;;12.35;4.32;;;24.70;95.70;;;;;;4991523;28;20137;-61
2022/06/09 09:32:51;;;;;;;10.10;4.38;;;25.00;91.50;;;;;;5009800;28;20053;-60
2022/06/09 09:35:40;;;;;;;14.93;4.68;;;24.20;92.40;;;;;;5007165;28;20052;-61
2022/06/09 09:38:08;;;;;;;19.30;3.97;;;22.50;94.70;;;;;;5008073;28;20025;-60
2022/06/09 09:40:42;;;;;;;10.10;4.15;;;21.80;95.90;;;;;;5009333;28;20056;-58
2022/06/09 09:43:34;;;;;;;18.33;5.55;;;21.20;98.00;;;;;;5009690;28;20034;-59
2022/06/09 09:46:00;;;;;;;11.18;4.07;;;20.60;99.30;;;;;;5007826;28;20442;-58
2022/06/09 09:48:31;;;;;;;11.02;4.53;;;20.10;99.40;;;;;;5009502;28;20476;-60
2022/06/09 09:51:05;;;;;;;15.10;4.32;;;19.90;99.90;;;;;;5009801;28;20034;-58
2022/06/09 09:53:38;;;;;;;15.93;4.55;;;19.90;99.90;;;;;;5009228;28;20088;-60
2022/06/09 09:56:16;;;;;;;9.43;3.97;;;19.90;99.90;;;;;;5010028;28;20018;-57
2022/06/09 09:58:48;;;;;;;22.77;5.05;;;20.30;99.90;;;;;;5009045;28;21432;-60
2022/06/09 10:01:16;;;;;;;12.20;3.80;;;20.60;99.90;;;;;;5013529;28;20021;-58
2022/06/09 10:09:56;;;;;;;13.05;3.63;;;23.10;96.90;;;;;;5019370;28;20153;-59
2022/06/09 10:12:28;;;;;;;10.88;3.80;;;23.50;94.90;;;;;;5008339;28;20076;-61
2022/06/09 10:15:16;;;;;;;16.10;3.42;;;22.90;95.20;;;;;;5008628;28;20030;-58
2022/06/09 10:17:57;;;;;;;13.30;4.15;;;22.70;95.10;;;;;;5002398;28;20480;-59
2022/06/09 10:20:43;;;;;;;13.90;3.67;;;22.20;95.80;;;;;;5008066;28;20034;-59
2022/06/09 10:23:17;;;;;;;12.90;3.63;;;22.40;95.50;;;;;;5004736;28;20068;-56
2022/06/09 10:26:11;;;;;;;11.63;2.97;;;21.90;95.70;;;;;;5003794;28;20033;-58
2022/06/09 10:28:40;;;;;;;;;;;22.10;96.00;;;;;;4989513;28;20590;-58
2022/06/09 10:31:18;;;;;;;10.65;3.35;;;22.10;95.80;;;;;;5005608;28;19936;-59
2022/06/09 10:33:57;;;;;;;10.85;2.88;;;22.10;96.50;;;;;;5003363;28;20033;-57
2022/06/09 10:36:43;;;;;;;10.25;3.53;;;22.20;95.60;;;;;;5007558;28;20061;-60
2022/06/09 10:39:32;;;;;;;15.25;4.25;;;22.70;96.00;;;;;;5007049;28;20037;-56
2022/06/09 10:42:18;;;;;;;14.10;3.70;;;22.30;95.90;;;;;;5006728;28;20026;-56
2022/06/09 10:44:49;;;;;;;14.60;3.60;;;22.40;96.60;;;;;;5006512;28;20175;-61
2022/06/09 10:56:27;;;;;;;18.85;4.18;;;22.30;96.40;;;;;;5008727;28;20049;-59
2022/06/09 10:58:59;;;;;;;14.90;3.05;;;22.40;95.20;;;;;;5007345;28;20105;-60
2022/06/09 11:01:32;;;;;;;10.73;2.75;;;22.80;93.70;;;;;;5006367;28;20200;-60
2022/06/09 11:04:00;;;;;;;8.32;2.60;;;22.60;96.10;;;;;;5009205;28;20033;-54
2022/06/09 11:06:43;;;;;;;10.75;2.97;;;22.80;94.00;;;;;;5005276;28;20036;-58
2022/06/09 11:09:33;;;;;;;9.55;2.72;;;22.90;94.00;;;;;;5006723;28;20034;-59
2022/06/09 11:12:13;;;;;;;9.88;2.70;;;22.80;93.30;;;;;;5008131;28;20116;-51
2022/06/09 11:14:47;;;;;;;10.82;2.90;;;22.80;93.90;;;;;;5007630;28;20041;-58
2022/06/09 11:17:35;;;;;;;12.93;3.25;;;22.30;94.20;;;;;;5006717;28;20061;-60
2022/06/09 11:20:26;;;;;;;14.05;2.70;;;22.40;95.10;;;;;;5023215;28;20030;-57
2022/06/09 11:23:03;;;;;;;8.38;3.28;;;22.50;94.30;;;;;;4998385;28;20042;-55
2022/06/09 11:25:53;;;;;;;13.18;3.75;;;23.00;93.60;;;;;;5007228;28;20031;-54
2022/06/09 11:28:34;;;;;;;11.13;2.70;;;23.10;92.50;;;;;;5009260;28;20545;-56
2022/06/09 11:31:15;;;;;;;8.80;2.58;;;22.70;93.60;;;;;;4978386;28;20057;-59
2022/06/09 11:33:43;;;;;;;7.32;2.42;;;22.80;93.00;;;;;;5004434;28;20037;-59
2022/06/09 11:36:32;;;;;;;8.15;1.95;;;23.20;91.70;;;;;;5003721;28;20030;-61
2022/06/09 11:39:23;;;;;;;7.88;1.95;;;23.20;92.90;;;;;;5004015;28;20061;-59
2022/06/09 11:42:02;;;;;;;7.85;1.50;;;23.40;91.10;;;;;;5004690;28;20054;-56
2022/06/09 11:44:35;;;;;;;4.90;1.52;;;23.20;90.10;;;;;;5003551;28;20592;-56
2022/06/09 11:47:16;;;;;;;4.68;1.38;;;22.70;89.60;;;;;;5004288;28;20030;-57
2022/06/09 11:49:49;;;;;;;2.67;1.35;;;22.40;91.20;;;;;;5010429;28;20048;-58
2022/06/09 11:52:39;;;;;;;2.72;1.85;;;21.90;92.20;;;;;;5010427;28;20056;-60
2022/06/09 11:55:59;;;;;;;3.53;1.40;;;21.10;93.60;;;;;;5009692;28;20380;-57
2022/06/09 11:58:34;;;;;;;4.88;1.42;;;20.30;96.90;;;;;;5008559;28;20345;-57
2022/06/09 12:01:32;;;;;;;3.10;1.20;;;20.00;97.40;;;;;;5007578;28;20049;-56
2022/06/09 12:04:16;;;;;;;5.85;1.35;;;20.20;96.50;;;;;;5009353;28;20462;-57
2022/06/09 12:07:03;;;;;;;2.83;1.10;;;19.80;96.50;;;;;;5007843;28;20107;-58
2022/06/09 12:09:41;;;;;;;5.40;1.63;;;19.90;96.90;;;;;;5005558;28;20394;-57
2022/06/09 12:12:25;;;;;;;3.13;1.05;;;19.90;96.20;;;;;;5007821;28;20053;-58
2022/06/09 12:15:20;;;;;;;4.05;1.08;;;20.20;96.40;;;;;;5009719;28;20053;-57
2022/06/09 12:18:07;;;;;;;7.20;1.48;;;20.40;96.60;;;;;;5005541;28;20400;-57
2022/06/09 12:20:46;;;;;;;4.70;1.55;;;20.40;96.40;;;;;;5008293;28;20480;-56
2022/06/09 12:23:24;;;;;;;11.68;1.90;;;20.50;96.60;;;;;;5008568;28;20030;-57
2022/06/09 12:26:08;;;;;;;6.28;2.17;;;20.10;99.90;;;;;;5010115;28;20018;-55
2022/06/09 12:28:52;;;;;;;7.13;2.35;;;19.80;99.90;;;;;;5008106;28;20562;-59
2022/06/09 12:31:22;;;;;;;;;;;19.60;99.90;;;;;;4998296;28;20796;-57
2022/06/09 12:34:03;;;;;;;9.38;2.20;;;19.60;99.90;;;;;;5010059;28;19991;-58
2022/06/09 12:36:28;;;;;;;7.22;2.45;;;19.60;99.90;;;;;;5009351;28;20067;-59
2022/06/09 12:38:57;;;;;;;10.52;2.60;;;19.80;99.90;;;;;;5011010;28;20018;-58
2022/06/09 12:41:40;;;;;;;6.95;2.70;;;19.80;99.90;;;;;;5012050;28;20037;-58
2022/06/09 12:44:15;;;;;;;10.52;3.33;;;19.90;99.90;;;;;;5005710;28;20038;-58
2022/06/09 12:46:42;;;;;;;7.25;2.40;;;20.20;99.90;;;;;;5006535;28;20152;-59
2022/06/09 12:49:16;;;;;;;8.18;2.33;;;20.40;99.70;;;;;;5009444;28;20036;-57
2022/06/09 12:51:41;;;;;;;8.82;3.08;;;20.60;99.40;;;;;;5003531;28;20141;-60
2022/06/09 12:54:20;;;;;;;8.02;2.35;;;20.80;99.60;;;;;;5008408;28;20038;-56
2022/06/09 12:56:58;;;;;;;14.60;3.72;;;20.80;98.40;;;;;;5010098;28;20423;-58
2022/06/09 12:59:34;;;;;;;11.50;2.30;;;20.80;98.40;;;;;;5007332;28;20060;-57
2022/06/09 13:02:00;;;;;;;9.35;2.60;;;20.80;99.00;;;;;;5004259;28;20026;-55
2022/06/09 13:04:27;;;;;;;6.32;2.78;;;20.70;99.90;;;;;;5009430;28;20030;-53
2022/06/09 13:06:56;;;;;;;11.15;3.03;;;20.50;99.10;;;;;;5006898;28;20135;-56
2022/06/09 13:09:31;;;;;;;9.05;3.08;;;20.40;99.90;;;;;;5010918;28;20395;-56
2022/06/09 13:14:50;;;;;;;10.55;3.45;;;19.90;99.90;;;;;;5009936;28;20123;-57
2022/06/09 13:17:25;;;;;;;9.95;3.80;;;19.90;99.90;;;;;;5007494;28;20022;-56
2022/06/09 13:20:07;;;;;;;11.02;3.90;;;19.50;99.90;;;;;;5007454;28;20519;-57
2022/06/09 13:22:33;;;;;;;21.02;5.25;;;19.20;99.90;;;;;;5006228;28;20029;-56